Terminal Aerodrome Forecast
Issued by NWS

Home | Current Version | Previous Version | Text Only | Print | Product List | Glossary On
Versions: 1 2 3 4 5 6 7 8 9 10 11 12 13 14 15 16 17 18 19 20 21 22
000
FTUS43 KIND 210500
TAFLAF
TAF
KLAF 210520Z 2106/2206 VRB02KT 6SM BR BKN100
     FM210900 21002KT 4SM BR VCTS BKN050CB
     FM211600 26008KT P6SM SCT060 BKN150
     FM220100 20004KT P6SM BKN050
      AMD LTD TO CLD VIS AND WIND TIL 211300=

USA.gov is the U.S. government's official web portal to all federal, state and local government web resources and services.